createdAt,value
2019-02-24T00:00:30.129Z,58.94
2019-02-24T00:01:30.118Z,59.25
2019-02-24T00:02:30.123Z,58.73
2019-02-24T00:03:30.097Z,58.73
2019-02-24T00:04:30.087Z,58.94
2019-02-24T00:05:30.079Z,59.36
2019-02-24T00:06:30.065Z,59.67
2019-02-24T00:07:30.077Z,59.28
2019-02-24T00:08:30.038Z,59.25
2019-02-24T00:09:30.028Z,59.05
2019-02-24T00:10:30.018Z,59.70
2019-02-24T00:11:30.013Z,59.17
2019-02-24T00:12:29.995Z,59.46
2019-02-24T00:13:30.013Z,59.49
2019-02-24T00:14:29.976Z,59.49
2019-02-24T00:15:29.960Z,59.49
2019-02-24T00:16:29.948Z,59.49
2019-02-24T00:17:29.938Z,59.07
2019-02-24T00:18:29.928Z,59.28
2019-02-24T00:19:29.943Z,59.17
2019-02-24T00:20:29.910Z,58.76
2019-02-24T00:21:29.891Z,59.70
2019-02-24T00:22:29.881Z,59.91
2019-02-24T00:23:29.874Z,60.22
2019-02-24T00:24:29.888Z,59.07
2019-02-24T00:25:29.855Z,59.83
2019-02-24T00:26:29.835Z,60.11
2019-02-24T00:27:29.824Z,60.74
2019-02-24T00:28:29.813Z,60.74
2019-02-24T00:29:29.805Z,60.56
2019-02-24T00:30:29.816Z,60.56
2019-02-24T00:31:29.782Z,60.42
2019-02-24T00:32:29.769Z,61.16
2019-02-24T00:33:29.756Z,61.26
2019-02-24T00:34:29.745Z,60.85
2019-02-24T00:35:29.735Z,61.29
2019-02-24T00:36:29.751Z,60.85
2019-02-24T00:37:29.715Z,60.74
2019-02-24T00:38:29.705Z,61.99
2019-02-24T00:39:29.689Z,61.57
2019-02-24T00:40:29.679Z,61.91
2019-02-24T00:41:29.666Z,62.09
2019-02-24T00:42:29.676Z,61.91
2019-02-24T00:43:29.646Z,61.78
2019-02-24T00:44:29.635Z,61.91
2019-02-24T00:45:29.622Z,61.60
2019-02-24T00:46:29.611Z,61.81
2019-02-24T00:47:29.626Z,61.60
2019-02-24T00:48:29.586Z,62.41
2019-02-24T00:49:29.577Z,62.12
2019-02-24T00:50:29.563Z,62.64
2019-02-24T00:51:29.553Z,63.06
2019-02-24T00:52:29.542Z,62.54
2019-02-24T00:53:29.557Z,62.62
2019-02-24T00:54:29.518Z,62.54
2019-02-24T00:55:30.691Z,62.85
2019-02-24T00:56:29.494Z,62.43
2019-02-24T00:57:29.483Z,62.85
2019-02-24T00:58:29.477Z,62.64
2019-02-24T00:59:29.482Z,62.93
2019-02-24T01:00:29.452Z,62.23
2019-02-24T01:01:29.441Z,62.33
2019-02-24T01:02:29.427Z,61.81
2019-02-24T01:03:29.416Z,62.85
2019-02-24T01:04:29.434Z,62.96
2019-02-24T01:05:29.392Z,62.33
2019-02-24T01:06:29.383Z,62.43
2019-02-24T01:07:29.372Z,62.96
2019-02-24T01:08:38.183Z,62.64
2019-02-24T01:09:29.353Z,63.06
2019-02-24T01:10:29.367Z,62.43
2019-02-24T01:11:29.327Z,62.46
2019-02-24T01:12:38.726Z,62.67
2019-02-24T01:13:39.267Z,62.54
2019-02-24T01:14:38.300Z,62.96
2019-02-24T01:15:36.910Z,62.96
2019-02-24T01:16:37.886Z,62.85
2019-02-24T01:17:38.924Z,62.54
2019-02-24T01:18:36.960Z,62.64
2019-02-24T01:19:29.239Z,62.98
2019-02-24T01:20:29.227Z,62.67
2019-02-24T01:21:29.231Z,62.96
2019-02-24T01:22:29.961Z,63.48
2019-02-24T01:23:29.196Z,64.11
2019-02-24T01:24:29.185Z,64.21
2019-02-24T01:25:29.173Z,64.23
2019-02-24T01:26:29.191Z,64.00
2019-02-24T01:27:29.157Z,64.94
2019-02-24T01:28:29.138Z,64.94
2019-02-24T01:29:29.134Z,64.42
2019-02-24T01:30:29.114Z,64.94
2019-02-24T01:31:29.103Z,64.76
2019-02-24T01:32:31.462Z,64.76
2019-02-24T01:33:29.084Z,64.23
2019-02-24T01:34:29.067Z,64.76
2019-02-24T01:35:29.060Z,64.97
2019-02-24T01:36:29.049Z,64.65
2019-02-24T01:37:29.037Z,64.65
2019-02-24T01:38:29.053Z,65.17
2019-02-24T01:39:29.013Z,64.76
2019-02-24T01:40:29.002Z,64.55
2019-02-24T01:41:28.994Z,64.76
2019-02-24T01:42:28.981Z,64.76
2019-02-24T01:43:28.968Z,64.76
2019-02-24T01:44:28.972Z,64.55
2019-02-24T01:45:28.944Z,65.48
2019-02-24T01:46:28.937Z,65.48
2019-02-24T01:47:28.923Z,65.80
2019-02-24T01:48:28.916Z,65.70
2019-02-24T01:49:28.932Z,64.76
2019-02-24T01:50:28.891Z,65.28
2019-02-24T01:51:28.877Z,64.76
2019-02-24T01:52:28.875Z,65.17
2019-02-24T01:53:28.855Z,65.80
2019-02-24T01:54:28.846Z,65.07
2019-02-24T01:55:28.866Z,64.76
2019-02-24T01:56:28.824Z,65.48
2019-02-24T01:57:28.812Z,65.80
2019-02-24T01:58:34.874Z,65.38
2019-02-24T01:59:29.791Z,65.48
2019-02-24T02:00:28.780Z,64.86
2019-02-24T02:01:28.785Z,65.80
2019-02-24T02:02:28.757Z,65.28
2019-02-24T02:03:28.746Z,65.70
2019-02-24T02:04:28.732Z,65.48
2019-02-24T02:05:28.723Z,65.80
2019-02-24T02:06:28.980Z,65.07
2019-02-24T02:07:28.697Z,65.91
2019-02-24T02:08:28.685Z,65.80
2019-02-24T02:09:28.677Z,64.97
2019-02-24T02:10:28.668Z,64.76
2019-02-24T02:11:28.653Z,65.80
2019-02-24T02:12:29.457Z,65.70
2019-02-24T02:13:28.640Z,65.17
2019-02-24T02:14:28.617Z,64.86
2019-02-24T02:15:28.608Z,65.07
2019-02-24T02:16:28.603Z,64.76
2019-02-24T02:17:28.585Z,64.45
2019-02-24T02:18:28.601Z,64.97
2019-02-24T02:19:28.566Z,64.79
2019-02-24T02:20:28.552Z,64.55
2019-02-24T02:21:28.541Z,64.34
2019-02-24T02:22:28.535Z,64.16
2019-02-24T02:23:28.525Z,64.26
2019-02-24T02:24:28.541Z,64.16
2019-02-24T02:25:28.503Z,64.37
2019-02-24T02:26:28.484Z,63.64
2019-02-24T02:27:28.482Z,63.61
2019-02-24T02:28:28.468Z,63.75
2019-02-24T02:29:28.451Z,64.03
2019-02-24T02:30:28.469Z,63.82
2019-02-24T02:31:28.435Z,63.75
2019-02-24T02:32:28.416Z,63.75
2019-02-24T02:33:28.409Z,63.95
2019-02-24T02:34:28.395Z,63.95
2019-02-24T02:35:28.460Z,63.75
2019-02-24T02:36:28.486Z,63.95
2019-02-24T02:37:28.362Z,64.06
2019-02-24T02:38:28.347Z,63.95
2019-02-24T02:39:28.964Z,63.64
2019-02-24T02:40:29.334Z,63.85
2019-02-24T02:41:28.326Z,63.32
2019-02-24T02:42:28.476Z,64.16
2019-02-24T02:43:28.300Z,63.95
2019-02-24T02:44:28.283Z,63.75
2019-02-24T02:45:28.282Z,63.95
2019-02-24T02:46:28.262Z,64.16
2019-02-24T02:47:28.249Z,64.09
2019-02-24T02:48:28.266Z,64.06
2019-02-24T02:49:28.228Z,64.16
2019-02-24T02:50:28.218Z,64.16
2019-02-24T02:51:28.209Z,63.95
2019-02-24T02:52:28.193Z,63.75
2019-02-24T02:53:28.185Z,64.06
2019-02-24T02:54:29.999Z,63.98
2019-02-24T02:55:28.160Z,64.09
2019-02-24T02:56:28.152Z,64.40
2019-02-24T02:57:28.136Z,64.19
2019-02-24T02:58:28.127Z,64.06
2019-02-24T02:59:28.115Z,63.88
2019-02-24T03:00:28.142Z,63.56
2019-02-24T03:01:28.095Z,64.19
2019-02-24T03:02:28.084Z,64.50
2019-02-24T03:03:28.074Z,64.71
2019-02-24T03:04:28.059Z,64.61
2019-02-24T03:05:28.052Z,64.61
2019-02-24T03:06:28.064Z,64.61
2019-02-24T03:07:28.033Z,64.61
2019-02-24T03:08:28.013Z,64.50
2019-02-24T03:09:28.003Z,63.88
2019-02-24T03:10:27.990Z,63.78
2019-02-24T03:11:27.979Z,64.19
2019-02-24T03:12:28.484Z,64.19
2019-02-24T03:13:27.964Z,64.19
2019-02-24T03:14:27.948Z,63.88
2019-02-24T03:15:27.942Z,63.78
2019-02-24T03:16:27.925Z,62.96
2019-02-24T03:17:27.941Z,62.94
2019-02-24T03:18:27.905Z,62.94
2019-02-24T03:19:27.925Z,62.73
2019-02-24T03:20:27.882Z,62.55
2019-02-24T03:21:27.874Z,62.84
2019-02-24T03:22:28.469Z,63.04
2019-02-24T03:23:28.465Z,62.94
2019-02-24T03:24:27.840Z,62.84
2019-02-24T03:25:28.473Z,62.62
2019-02-24T03:26:27.812Z,63.28
2019-02-24T03:27:28.469Z,62.84
2019-02-24T03:28:27.790Z,62.84
2019-02-24T03:29:27.804Z,62.10
2019-02-24T03:30:27.766Z,62.52
2019-02-24T03:31:27.755Z,61.90
2019-02-24T03:32:28.476Z,61.90
2019-02-24T03:33:27.897Z,61.90
2019-02-24T03:34:27.728Z,61.79
2019-02-24T03:35:27.738Z,62.00
2019-02-24T03:36:27.700Z,61.90
2019-02-24T03:37:27.687Z,60.53
2019-02-24T03:38:27.696Z,61.90
2019-02-24T03:39:27.665Z,62.00
2019-02-24T03:40:29.479Z,62.31
2019-02-24T03:41:27.669Z,61.92
2019-02-24T03:42:27.638Z,61.82
2019-02-24T03:43:27.632Z,61.92
2019-02-24T03:44:27.612Z,61.82
2019-02-24T03:45:27.973Z,62.86
2019-02-24T03:46:27.591Z,62.02
2019-02-24T03:47:27.610Z,62.96
2019-02-24T03:48:27.564Z,63.07
2019-02-24T03:49:27.555Z,62.96
2019-02-24T03:50:27.544Z,63.70
2019-02-24T03:51:27.531Z,63.80
2019-02-24T03:52:27.525Z,62.65
2019-02-24T03:53:37.364Z,62.86
2019-02-24T03:54:36.051Z,62.86
2019-02-24T03:55:37.086Z,62.86
2019-02-24T03:56:36.133Z,63.07
2019-02-24T03:57:35.666Z,63.39
2019-02-24T03:58:36.703Z,63.49
2019-02-24T03:59:35.020Z,62.41
2019-02-24T04:00:27.434Z,62.45
2019-02-24T04:01:27.419Z,63.49
2019-02-24T04:02:27.412Z,63.80
2019-02-24T04:03:27.401Z,64.32
2019-02-24T04:04:27.387Z,64.01
2019-02-24T04:05:27.417Z,64.22
2019-02-24T04:06:27.367Z,64.43
2019-02-24T04:07:27.368Z,64.32
2019-02-24T04:08:27.348Z,64.22
2019-02-24T04:09:27.337Z,64.01
2019-02-24T04:10:27.320Z,64.43
2019-02-24T04:11:27.339Z,64.32
2019-02-24T04:12:27.295Z,64.01
2019-02-24T04:13:27.285Z,65.16
2019-02-24T04:14:27.274Z,64.01
2019-02-24T04:15:27.264Z,64.84
2019-02-24T04:16:27.251Z,64.84
2019-02-24T04:17:27.275Z,65.16
2019-02-24T04:18:27.230Z,64.74
2019-02-24T04:19:27.222Z,64.53
2019-02-24T04:20:27.216Z,65.37
2019-02-24T04:21:27.196Z,65.58
2019-02-24T04:22:27.185Z,65.37
2019-02-24T04:23:27.201Z,64.43
2019-02-24T04:24:27.165Z,64.32
2019-02-24T04:25:27.153Z,64.22
2019-02-24T04:26:27.139Z,64.32
2019-02-24T04:27:27.128Z,64.32
2019-02-24T04:28:27.122Z,64.53
2019-02-24T04:29:27.135Z,64.32
2019-02-24T04:30:27.137Z,64.64
2019-02-24T04:31:27.085Z,64.01
2019-02-24T04:32:27.073Z,63.80
2019-02-24T04:33:27.061Z,63.49
2019-02-24T04:34:27.049Z,63.59
2019-02-24T04:35:27.067Z,63.80
2019-02-24T04:36:27.033Z,63.59
2019-02-24T04:37:27.022Z,63.90
2019-02-24T04:38:27.005Z,64.01
2019-02-24T04:39:26.994Z,64.01
2019-02-24T04:40:26.983Z,64.01
2019-02-24T04:41:27.006Z,64.22
2019-02-24T04:42:26.961Z,64.01
2019-02-24T04:43:26.949Z,63.80
2019-02-24T04:44:26.939Z,63.49
2019-02-24T04:45:27.741Z,63.80
2019-02-24T04:46:27.745Z,63.80
2019-02-24T04:47:26.945Z,64.01
2019-02-24T04:48:26.901Z,63.80
2019-02-24T04:49:26.883Z,62.96
2019-02-24T04:50:26.874Z,62.76
2019-02-24T04:51:26.861Z,62.86
2019-02-24T04:52:26.943Z,62.45
2019-02-24T04:53:26.915Z,63.59
2019-02-24T04:54:26.828Z,63.28
2019-02-24T04:55:26.815Z,64.32
2019-02-24T04:56:26.802Z,64.01
2019-02-24T04:57:26.793Z,63.90
2019-02-24T04:58:26.783Z,64.43
2019-02-24T04:59:34.759Z,63.90
2019-02-24T05:00:27.757Z,64.32
2019-02-24T05:01:26.753Z,64.36
2019-02-24T05:02:27.743Z,64.22
2019-02-24T05:03:26.726Z,64.84
2019-02-24T05:04:26.717Z,64.04
2019-02-24T05:05:27.257Z,64.56
2019-02-24T05:06:26.693Z,63.80
2019-02-24T05:07:26.686Z,64.14
2019-02-24T05:08:27.250Z,63.83
2019-02-24T05:09:26.659Z,64.32
2019-02-24T05:10:26.677Z,64.46
2019-02-24T05:11:26.637Z,65.09
2019-02-24T05:12:26.627Z,64.67
2019-02-24T05:13:26.613Z,65.09
2019-02-24T05:14:26.602Z,65.61
2019-02-24T05:15:26.597Z,65.30
2019-02-24T05:16:26.613Z,65.30
2019-02-24T05:17:26.582Z,64.77
2019-02-24T05:18:26.564Z,64.04
2019-02-24T05:19:26.548Z,64.46
2019-02-24T05:20:26.537Z,63.93
2019-02-24T05:21:26.523Z,64.12
2019-02-24T05:22:26.539Z,63.83
2019-02-24T05:23:26.505Z,62.48
2019-02-24T05:24:26.494Z,63.20
2019-02-24T05:25:26.485Z,62.79
2019-02-24T05:26:26.472Z,62.58
2019-02-24T05:27:26.457Z,63.62
2019-02-24T05:28:26.478Z,63.73
2019-02-24T05:29:26.435Z,64.56
2019-02-24T05:30:26.424Z,64.04
2019-02-24T05:31:26.412Z,64.14
2019-02-24T05:32:26.401Z,64.36
2019-02-24T05:33:26.396Z,64.04
2019-02-24T05:34:26.408Z,64.36
2019-02-24T05:35:26.369Z,64.56
2019-02-24T05:36:26.357Z,65.09
2019-02-24T05:37:26.344Z,64.46
2019-02-24T05:38:26.337Z,64.07
2019-02-24T05:39:26.323Z,64.17
2019-02-24T05:40:26.331Z,63.96
2019-02-24T05:41:26.300Z,63.93
2019-02-24T05:42:26.292Z,64.28
2019-02-24T05:43:26.285Z,63.62
2019-02-24T05:44:26.271Z,62.92
2019-02-24T05:45:26.285Z,63.02
2019-02-24T05:46:26.251Z,62.58
2019-02-24T05:47:27.234Z,62.16
2019-02-24T05:48:26.235Z,62.79
2019-02-24T05:49:26.210Z,62.26
2019-02-24T05:50:26.204Z,63.10
2019-02-24T05:51:26.769Z,62.58
2019-02-24T05:52:26.177Z,62.71
2019-02-24T05:53:26.165Z,62.05
2019-02-24T05:54:26.749Z,62.50
2019-02-24T05:55:26.149Z,63.31
2019-02-24T05:56:27.755Z,62.71
2019-02-24T05:57:26.128Z,62.40
2019-02-24T05:58:26.114Z,62.71
2019-02-24T05:59:26.098Z,62.50
2019-02-24T06:00:26.093Z,62.82
2019-02-24T06:01:26.087Z,62.50
2019-02-24T06:02:26.091Z,62.08
2019-02-24T06:03:26.056Z,62.99
2019-02-24T06:04:26.047Z,61.95
2019-02-24T06:05:26.031Z,62.29
2019-02-24T06:06:26.020Z,62.68
2019-02-24T06:07:26.044Z,62.92
2019-02-24T06:08:26.000Z,62.40
2019-02-24T06:09:25.987Z,62.99
2019-02-24T06:10:25.982Z,62.16
2019-02-24T06:11:25.965Z,62.58
2019-02-24T06:12:25.959Z,61.85
2019-02-24T06:13:25.963Z,61.66
2019-02-24T06:14:25.934Z,61.01
2019-02-24T06:15:25.923Z,60.49
2019-02-24T06:16:25.908Z,60.59
2019-02-24T06:17:25.900Z,60.38
2019-02-24T06:18:26.751Z,60.93
2019-02-24T06:19:25.874Z,60.93
2019-02-24T06:20:26.754Z,60.62
2019-02-24T06:21:26.773Z,60.59
2019-02-24T06:22:25.841Z,61.01
2019-02-24T06:23:25.835Z,60.28
2019-02-24T06:24:25.840Z,59.76
2019-02-24T06:25:26.769Z,59.58
2019-02-24T06:26:26.265Z,60.38
2019-02-24T06:27:25.788Z,59.76
2019-02-24T06:28:25.776Z,60.49
2019-02-24T06:29:25.798Z,60.59
2019-02-24T06:30:25.753Z,60.41
2019-02-24T06:31:25.741Z,60.07
2019-02-24T06:32:25.736Z,60.17
2019-02-24T06:33:25.721Z,60.28
2019-02-24T06:34:25.714Z,59.13
2019-02-24T06:35:25.715Z,59.44
2019-02-24T06:36:34.296Z,59.34
2019-02-24T06:37:33.835Z,59.23
2019-02-24T06:38:33.873Z,59.55
2019-02-24T06:39:33.908Z,59.44
2019-02-24T06:40:33.277Z,59.13
2019-02-24T06:41:35.493Z,59.23
2019-02-24T06:42:35.033Z,58.61
2019-02-24T06:43:25.609Z,58.29
2019-02-24T06:44:25.601Z,57.87
2019-02-24T06:45:25.585Z,57.98
2019-02-24T06:46:25.594Z,58.40
2019-02-24T06:47:26.560Z,58.29
2019-02-24T06:48:25.550Z,57.98
2019-02-24T06:49:25.539Z,58.81
2019-02-24T06:50:35.055Z,58.19
2019-02-24T06:51:26.534Z,57.67
2019-02-24T06:52:25.511Z,58.29
2019-02-24T06:53:25.496Z,58.19
2019-02-24T06:54:25.482Z,57.15
2019-02-24T06:55:25.485Z,57.87
2019-02-24T06:56:25.463Z,57.98
2019-02-24T06:57:25.469Z,58.50
2019-02-24T06:58:25.437Z,57.77
2019-02-24T06:59:25.427Z,57.46
2019-02-24T07:00:25.416Z,57.87
2019-02-24T07:01:25.404Z,58.50
2019-02-24T07:02:25.421Z,58.27
2019-02-24T07:03:25.390Z,58.48
2019-02-24T07:04:25.373Z,57.85
2019-02-24T07:05:25.360Z,58.58
2019-02-24T07:06:25.360Z,57.25
2019-02-24T07:07:25.338Z,56.81
2019-02-24T07:08:25.342Z,57.01
2019-02-24T07:09:25.315Z,56.81
2019-02-24T07:10:25.304Z,56.91
2019-02-24T07:11:25.291Z,56.70
2019-02-24T07:12:25.283Z,56.49
2019-02-24T07:13:25.298Z,57.22
2019-02-24T07:14:25.288Z,56.81
2019-02-24T07:15:25.251Z,56.81
2019-02-24T07:16:25.237Z,57.01
2019-02-24T07:17:25.224Z,57.01
2019-02-24T07:18:25.214Z,56.60
2019-02-24T07:19:25.243Z,56.49
2019-02-24T07:20:25.194Z,56.60
2019-02-24T07:21:25.184Z,56.91
2019-02-24T07:22:25.169Z,57.12
2019-02-24T07:23:27.047Z,57.85
2019-02-24T07:24:25.175Z,58.48
2019-02-24T07:25:25.135Z,57.95
2019-02-24T07:26:25.127Z,57.54
2019-02-24T07:27:25.112Z,57.64
2019-02-24T07:28:25.104Z,56.91
2019-02-24T07:29:25.089Z,57.54
2019-02-24T07:30:25.095Z,57.22
2019-02-24T07:31:25.069Z,57.54
2019-02-24T07:32:25.063Z,57.95
2019-02-24T07:33:25.051Z,57.75
2019-02-24T07:34:25.042Z,58.27
2019-02-24T07:35:25.061Z,58.37
2019-02-24T07:36:25.015Z,58.69
2019-02-24T07:37:25.010Z,58.58
2019-02-24T07:38:24.996Z,57.95
2019-02-24T07:39:24.981Z,58.24
2019-02-24T07:40:24.970Z,58.14
2019-02-24T07:41:24.975Z,58.45
2019-02-24T07:42:24.948Z,57.93
2019-02-24T07:43:24.936Z,58.14
2019-02-24T07:44:24.927Z,58.45
2019-02-24T07:45:24.912Z,57.62
2019-02-24T07:46:24.929Z,57.38
2019-02-24T07:47:24.891Z,57.59
2019-02-24T07:48:24.881Z,57.79
2019-02-24T07:49:24.868Z,57.38
2019-02-24T07:50:24.862Z,57.56
2019-02-24T07:51:24.846Z,57.04
2019-02-24T07:52:24.860Z,56.41
2019-02-24T07:53:24.832Z,56.73
2019-02-24T07:54:24.814Z,56.83
2019-02-24T07:55:24.801Z,57.67
2019-02-24T07:56:24.791Z,56.70
2019-02-24T07:57:24.809Z,57.22
2019-02-24T07:58:24.771Z,56.62
2019-02-24T07:59:24.757Z,56.81
2019-02-24T08:00:31.968Z,56.49
2019-02-24T08:01:25.735Z,56.60
2019-02-24T08:02:24.723Z,56.15
2019-02-24T08:03:24.728Z,56.39
2019-02-24T08:04:24.700Z,56.29
2019-02-24T08:05:24.690Z,55.55
2019-02-24T08:06:24.677Z,56.29
2019-02-24T08:07:24.670Z,56.68
2019-02-24T08:08:24.682Z,56.57
2019-02-24T08:09:24.644Z,56.49
2019-02-24T08:10:24.633Z,55.84
2019-02-24T08:11:24.622Z,56.05
2019-02-24T08:12:24.609Z,56.47
2019-02-24T08:13:24.599Z,56.57
2019-02-24T08:14:24.605Z,56.37
2019-02-24T08:15:24.577Z,56.37
2019-02-24T08:16:24.567Z,56.15
2019-02-24T08:17:24.556Z,56.05
2019-02-24T08:18:24.542Z,56.47
2019-02-24T08:19:24.562Z,56.57
2019-02-24T08:20:24.520Z,56.86
2019-02-24T08:21:24.516Z,56.44
2019-02-24T08:22:24.496Z,55.82
2019-02-24T08:23:24.486Z,56.34
2019-02-24T08:24:24.478Z,56.34
2019-02-24T08:25:24.489Z,56.76
2019-02-24T08:26:24.452Z,56.65
2019-02-24T08:27:24.442Z,56.10
2019-02-24T08:28:24.433Z,55.82
2019-02-24T08:29:24.419Z,55.51
2019-02-24T08:30:24.435Z,55.27
2019-02-24T08:31:24.395Z,55.90
2019-02-24T08:32:24.386Z,55.79
2019-02-24T08:33:24.373Z,55.58
2019-02-24T08:34:24.361Z,55.48
2019-02-24T08:35:25.035Z,56.00
2019-02-24T08:36:24.352Z,55.58
2019-02-24T08:37:24.327Z,54.44
2019-02-24T08:38:24.315Z,54.54
2019-02-24T08:39:24.304Z,54.54
2019-02-24T08:40:24.294Z,54.83
2019-02-24T08:41:25.036Z,53.81
2019-02-24T08:42:24.278Z,53.81
2019-02-24T08:43:24.259Z,53.48
2019-02-24T08:44:24.247Z,54.21
2019-02-24T08:45:24.243Z,53.89
2019-02-24T08:46:24.225Z,54.21
2019-02-24T08:47:24.232Z,53.79
2019-02-24T08:48:24.203Z,53.48
2019-02-24T08:49:24.192Z,53.69
2019-02-24T08:50:24.179Z,53.89
2019-02-24T08:51:24.168Z,53.58
2019-02-24T08:52:24.188Z,53.56
2019-02-24T08:53:24.147Z,53.35
2019-02-24T08:54:24.138Z,53.97
2019-02-24T08:55:24.122Z,53.77
2019-02-24T08:56:24.112Z,53.45
2019-02-24T08:57:24.101Z,53.01
2019-02-24T08:58:24.106Z,52.91
2019-02-24T08:59:24.077Z,52.57
2019-02-24T09:00:24.066Z,51.84
2019-02-24T09:01:24.053Z,51.74
2019-02-24T09:02:24.043Z,51.38
2019-02-24T09:03:24.059Z,50.13
2019-02-24T09:04:24.032Z,50.34
2019-02-24T09:05:24.010Z,49.78
2019-02-24T09:06:23.998Z,49.34
2019-02-24T09:07:23.993Z,49.13
2019-02-24T09:08:23.976Z,48.49
2019-02-24T09:09:23.984Z,47.85
2019-02-24T09:10:23.955Z,47.95
2019-02-24T09:11:23.946Z,47.12
2019-02-24T09:12:24.542Z,47.04
2019-02-24T09:13:23.924Z,46.52
2019-02-24T09:14:23.937Z,46.52
2019-02-24T09:15:23.899Z,46.00
2019-02-24T09:16:23.886Z,46.62
2019-02-24T09:17:23.880Z,47.56
2019-02-24T09:18:23.868Z,47.35
2019-02-24T09:19:23.859Z,46.19
2019-02-24T09:20:23.859Z,46.19
2019-02-24T09:21:23.834Z,45.78
2019-02-24T09:22:23.817Z,45.86
2019-02-24T09:23:23.809Z,44.80
2019-02-24T09:24:23.796Z,43.56
2019-02-24T09:25:23.810Z,43.85
2019-02-24T09:26:23.777Z,43.60
2019-02-24T09:27:23.762Z,42.32
2019-02-24T09:28:23.750Z,41.66
2019-02-24T09:29:23.739Z,41.03
2019-02-24T09:30:23.728Z,40.29
2019-02-24T09:31:23.733Z,41.01
2019-02-24T09:32:23.706Z,40.06
2019-02-24T09:33:24.544Z,39.96
2019-02-24T09:34:23.679Z,40.39
2019-02-24T09:35:26.056Z,40.08
2019-02-24T09:36:24.057Z,40.70
2019-02-24T09:37:24.543Z,39.67
2019-02-24T09:38:23.639Z,39.36
2019-02-24T09:39:23.632Z,38.43
2019-02-24T09:40:23.615Z,38.42
2019-02-24T09:41:23.600Z,38.62
2019-02-24T09:42:24.044Z,38.52
2019-02-24T09:43:23.583Z,38.84
2019-02-24T09:44:23.573Z,40.19
2019-02-24T09:45:23.559Z,40.61
2019-02-24T09:46:23.598Z,40.52
2019-02-24T09:47:23.564Z,40.20
2019-02-24T09:48:23.522Z,40.82
2019-02-24T09:49:23.517Z,40.29
2019-02-24T09:50:23.501Z,40.59
2019-02-24T09:51:23.488Z,39.32
2019-02-24T09:52:23.478Z,38.78
2019-02-24T09:53:23.482Z,39.06
2019-02-24T09:54:23.451Z,38.76
2019-02-24T09:55:23.441Z,38.34
2019-02-24T09:56:23.433Z,38.04
2019-02-24T09:57:23.421Z,37.92
2019-02-24T09:58:23.442Z,37.19
2019-02-24T09:59:23.397Z,38.14
2019-02-24T10:00:23.389Z,37.95
2019-02-24T10:01:23.378Z,38.17
2019-02-24T10:02:23.363Z,39.53
2019-02-24T10:03:23.351Z,40.97
2019-02-24T10:04:23.361Z,39.86
2019-02-24T10:05:23.329Z,40.27
2019-02-24T10:06:23.323Z,40.19
2019-02-24T10:07:23.306Z,41.01
2019-02-24T10:08:23.301Z,42.16
2019-02-24T10:09:23.313Z,41.77
2019-02-24T10:10:23.275Z,41.99
2019-02-24T10:11:23.264Z,41.99
2019-02-24T10:12:23.257Z,42.72
2019-02-24T10:13:23.239Z,42.43
2019-02-24T10:14:23.230Z,42.11
2019-02-24T10:15:23.238Z,42.43
2019-02-24T10:16:23.204Z,42.65
2019-02-24T10:17:23.196Z,43.25
2019-02-24T10:18:23.182Z,44.20
2019-02-24T10:19:23.172Z,44.41
2019-02-24T10:20:23.201Z,43.68
2019-02-24T10:21:23.151Z,43.59
2019-02-24T10:22:24.051Z,45.05
2019-02-24T10:23:23.126Z,44.32
2019-02-24T10:24:27.573Z,46.08
2019-02-24T10:25:25.064Z,45.87
2019-02-24T10:26:24.051Z,46.60
2019-02-24T10:27:23.085Z,46.91
2019-02-24T10:28:23.075Z,46.81
2019-02-24T10:29:24.057Z,47.63
2019-02-24T10:30:23.046Z,46.08
2019-02-24T10:31:23.050Z,45.87
2019-02-24T10:32:24.583Z,45.98
2019-02-24T10:33:23.560Z,45.98
2019-02-24T10:34:22.999Z,45.87
2019-02-24T10:35:22.987Z,46.08
2019-02-24T10:36:23.008Z,45.96
2019-02-24T10:37:22.966Z,46.27
2019-02-24T10:38:22.955Z,46.78
2019-02-24T10:39:29.466Z,47.30
2019-02-24T10:40:23.931Z,46.68
2019-02-24T10:41:23.556Z,47.30
2019-02-24T10:42:22.928Z,47.09
2019-02-24T10:43:22.896Z,47.71
2019-02-24T10:44:22.884Z,47.71
2019-02-24T10:45:22.876Z,46.70
2019-02-24T10:46:22.863Z,48.25
2019-02-24T10:47:22.900Z,48.46
2019-02-24T10:48:22.840Z,48.15
2019-02-24T10:49:22.826Z,48.25
2019-02-24T10:50:22.822Z,49.18
2019-02-24T10:51:22.811Z,49.70
2019-02-24T10:52:22.795Z,50.11
2019-02-24T10:53:22.800Z,50.03
2019-02-24T10:54:22.770Z,49.91
2019-02-24T10:55:22.763Z,50.13
2019-02-24T10:56:22.751Z,50.45
2019-02-24T10:57:22.736Z,50.45
2019-02-24T10:58:22.743Z,50.42
2019-02-24T10:59:22.713Z,49.60
2019-02-24T11:00:22.710Z,49.70
2019-02-24T11:01:29.255Z,49.70
2019-02-24T11:02:22.687Z,49.60
2019-02-24T11:03:22.702Z,49.68
2019-02-24T11:04:22.656Z,49.37
2019-02-24T11:05:22.653Z,49.04
2019-02-24T11:06:22.634Z,48.93
2019-02-24T11:07:23.559Z,48.10
2019-02-24T11:08:22.612Z,48.70
2019-02-24T11:09:22.617Z,48.29
2019-02-24T11:10:22.586Z,48.60
2019-02-24T11:11:22.579Z,49.22
2019-02-24T11:12:22.567Z,49.34
2019-02-24T11:13:22.558Z,49.55
2019-02-24T11:14:22.576Z,49.34
2019-02-24T11:15:22.542Z,50.71
2019-02-24T11:16:22.520Z,50.09
2019-02-24T11:17:22.511Z,50.50
2019-02-24T11:18:22.503Z,50.73
2019-02-24T11:19:22.484Z,51.25
2019-02-24T11:20:22.492Z,51.25
2019-02-24T11:21:22.465Z,51.66
2019-02-24T11:22:22.452Z,52.41
2019-02-24T11:23:22.439Z,53.23
2019-02-24T11:24:22.430Z,52.83
2019-02-24T11:25:24.528Z,52.83
2019-02-24T11:26:22.405Z,53.23
2019-02-24T11:27:22.394Z,53.47
2019-02-24T11:28:22.381Z,52.83
2019-02-24T11:29:22.371Z,52.64
2019-02-24T11:30:22.361Z,53.44
2019-02-24T11:31:22.366Z,53.47
2019-02-24T11:32:22.338Z,53.16
2019-02-24T11:33:22.325Z,52.95
2019-02-24T11:34:22.313Z,53.36
2019-02-24T11:35:22.306Z,53.78
2019-02-24T11:36:22.318Z,53.78
2019-02-24T11:37:22.279Z,53.78
2019-02-24T11:38:22.269Z,53.47
2019-02-24T11:39:22.258Z,53.78
2019-02-24T11:40:22.246Z,53.65
2019-02-24T11:41:22.234Z,53.36
2019-02-24T11:42:22.240Z,52.83
2019-02-24T11:43:22.211Z,53.03
2019-02-24T11:44:22.205Z,53.34
2019-02-24T11:45:22.192Z,53.34
2019-02-24T11:46:22.186Z,52.41
2019-02-24T11:47:22.197Z,52.93
2019-02-24T11:48:22.154Z,52.51
2019-02-24T11:49:24.016Z,51.48
2019-02-24T11:50:22.133Z,51.48
2019-02-24T11:51:22.123Z,51.37
2019-02-24T11:52:22.111Z,51.58
2019-02-24T11:53:22.114Z,52.00
2019-02-24T11:54:22.090Z,51.17
2019-02-24T11:55:22.077Z,51.17
2019-02-24T11:56:22.065Z,51.37
2019-02-24T11:57:22.056Z,51.37
2019-02-24T11:58:22.062Z,51.58
2019-02-24T11:59:22.033Z,51.35
2019-02-24T12:00:22.018Z,51.45
2019-02-24T12:01:30.117Z,51.35
2019-02-24T12:02:34.541Z,51.56
2019-02-24T12:03:31.064Z,51.15
2019-02-24T12:04:21.980Z,50.42
2019-02-24T12:05:21.964Z,50.63
2019-02-24T12:06:21.956Z,51.04
2019-02-24T12:07:21.941Z,50.21
2019-02-24T12:08:21.967Z,50.32
2019-02-24T12:09:21.941Z,49.99
2019-02-24T12:10:21.905Z,50.21
2019-02-24T12:11:21.895Z,49.88
2019-02-24T12:12:21.884Z,50.40
2019-02-24T12:13:21.872Z,50.21
2019-02-24T12:14:21.881Z,50.09
2019-02-24T12:15:21.850Z,49.99
2019-02-24T12:16:21.842Z,50.29
2019-02-24T12:17:21.827Z,50.20
2019-02-24T12:18:21.822Z,50.71
2019-02-24T12:19:21.838Z,51.12
2019-02-24T12:20:21.808Z,50.40
2019-02-24T12:21:21.782Z,50.40
2019-02-24T12:22:21.774Z,50.09
2019-02-24T12:23:21.762Z,50.71
2019-02-24T12:24:21.750Z,50.50
2019-02-24T12:25:21.770Z,50.50
2019-02-24T12:26:21.727Z,50.09
2019-02-24T12:27:21.715Z,50.09
2019-02-24T12:28:21.704Z,49.47
2019-02-24T12:29:21.694Z,49.05
2019-02-24T12:30:21.688Z,48.54
2019-02-24T12:31:21.685Z,48.85
2019-02-24T12:32:21.663Z,48.21
2019-02-24T12:33:21.650Z,49.04
2019-02-24T12:34:21.639Z,48.00
2019-02-24T12:35:21.626Z,48.21
2019-02-24T12:36:21.628Z,47.88
2019-02-24T12:37:21.606Z,47.36
2019-02-24T12:38:21.591Z,47.17
2019-02-24T12:39:21.578Z,46.53
2019-02-24T12:40:21.568Z,46.95
2019-02-24T12:41:21.574Z,46.64
2019-02-24T12:42:21.545Z,46.95
2019-02-24T12:43:21.536Z,47.16
2019-02-24T12:44:21.525Z,46.95
2019-02-24T12:45:21.510Z,46.53
2019-02-24T12:46:21.516Z,48.00
2019-02-24T12:47:21.489Z,45.71
2019-02-24T12:48:21.511Z,46.02
2019-02-24T12:49:21.464Z,46.23
2019-02-24T12:50:21.453Z,45.81
2019-02-24T12:51:21.459Z,45.61
2019-02-24T12:52:21.430Z,46.33